createdAt,value
2024-02-08T00:02:50.245Z,7.41
2024-02-08T00:07:53.303Z,7.64
2024-02-08T00:12:56.068Z,7.56
2024-02-08T00:17:59.945Z,7.40
2024-02-08T00:23:03.034Z,7.42
2024-02-08T00:28:13.289Z,7.39
2024-02-08T00:33:16.458Z,7.51
2024-02-08T00:38:19.683Z,7.50
2024-02-08T00:43:22.907Z,7.39
2024-02-08T00:48:26.372Z,7.50
2024-02-08T00:53:29.016Z,7.45
2024-02-08T00:58:32.630Z,7.47
2024-02-08T01:03:37.717Z,7.37
2024-02-08T01:08:40.446Z,7.48
2024-02-08T01:13:43.374Z,7.46
2024-02-08T01:18:47.070Z,7.42
2024-02-08T01:23:50.517Z,7.35
2024-02-08T01:28:55.976Z,7.18
2024-02-08T01:33:59.224Z,7.48
2024-02-08T01:39:02.375Z,7.41
2024-02-08T01:44:09.099Z,7.45
2024-02-08T01:49:21.250Z,7.44
2024-02-08T01:54:24.005Z,7.42
2024-02-08T01:59:29.740Z,7.42
2024-02-08T02:04:32.783Z,7.33
2024-02-08T02:09:36.592Z,7.42
2024-02-08T02:14:40.602Z,7.21
2024-02-08T02:19:44.642Z,7.20
2024-02-08T02:24:50.652Z,7.16
2024-02-08T02:29:55.880Z,7.31
2024-02-08T02:34:58.860Z,7.30
2024-02-08T02:40:01.955Z,7.13
2024-02-08T02:45:14.542Z,7.40
2024-02-08T02:50:18.585Z,7.35
2024-02-08T02:55:21.636Z,7.26
2024-02-08T03:00:25.667Z,7.37
2024-02-08T03:05:28.581Z,7.24
2024-02-08T03:10:31.461Z,7.45
2024-02-08T03:15:38.420Z,7.42
2024-02-08T03:20:41.587Z,7.21
2024-02-08T03:25:44.528Z,7.54
2024-02-08T03:30:47.436Z,7.50
2024-02-08T03:35:54.839Z,7.45
2024-02-08T03:40:59.756Z,7.36
2024-02-08T03:46:06.473Z,7.40
2024-02-08T03:51:12.289Z,7.35
2024-02-08T03:56:17.290Z,7.15
2024-02-08T04:01:22.761Z,7.19
2024-02-08T04:06:38.460Z,7.21
2024-02-08T04:12:04.342Z,7.15
2024-02-08T04:17:25.763Z,7.13
2024-02-08T04:22:47.382Z,6.88
2024-02-08T04:28:10.039Z,6.86
2024-02-08T04:33:32.273Z,7.05
2024-02-08T04:38:53.488Z,6.97
2024-02-08T04:44:15.138Z,6.94
2024-02-08T04:49:36.631Z,6.85
2024-02-08T04:54:39.265Z,6.90
2024-02-08T04:59:43.008Z,6.92
2024-02-08T05:04:51.065Z,6.99
2024-02-08T05:09:54.326Z,7.13
2024-02-08T05:14:58.010Z,7.26
2024-02-08T05:20:01.048Z,7.30
2024-02-08T05:25:10.956Z,7.35
2024-02-08T05:30:16.776Z,7.49
2024-02-08T05:35:22.010Z,7.67
2024-02-08T05:40:26.351Z,7.51
2024-02-08T05:45:32.307Z,7.64
2024-02-08T05:50:37.992Z,7.59
2024-02-08T05:55:41.661Z,7.69
2024-02-08T06:00:54.618Z,7.92
2024-02-08T06:06:08.427Z,7.90
2024-02-08T06:11:21.568Z,7.95
2024-02-08T06:16:28.364Z,7.78
2024-02-08T06:21:43.685Z,7.85
2024-02-08T06:26:53.551Z,7.98
2024-02-08T06:32:04.383Z,8.27
2024-02-08T06:37:27.849Z,8.03
2024-02-08T06:42:56.802Z,8.05
2024-02-08T06:48:02.917Z,8.08
2024-02-08T06:53:24.293Z,7.95
2024-02-08T06:58:45.787Z,8.23
2024-02-08T07:04:07.369Z,8.45
2024-02-08T07:09:28.827Z,8.41
2024-02-08T07:14:50.653Z,8.42
2024-02-08T07:20:12.967Z,8.41
2024-02-08T07:25:34.660Z,8.39
2024-02-08T07:30:58.698Z,8.66
2024-02-08T07:36:23.188Z,9.00
2024-02-08T07:41:26.143Z,9.25
2024-02-08T07:46:33.326Z,9.30
2024-02-08T07:51:36.369Z,9.13
2024-02-08T07:56:48.245Z,8.85
2024-02-08T08:01:51.983Z,9.34
2024-02-08T08:07:02.037Z,8.74
2024-02-08T08:12:06.076Z,9.10
2024-02-08T08:17:14.865Z,9.04
2024-02-08T08:22:41.621Z,9.21
2024-02-08T08:28:12.071Z,9.01
2024-02-08T08:33:35.136Z,9.10
2024-02-08T08:38:46.075Z,9.11
2024-02-08T08:43:55.173Z,9.11
2024-02-08T08:48:58.437Z,9.07
2024-02-08T08:54:16.106Z,8.85
2024-02-08T08:59:21.183Z,8.74
2024-02-08T09:04:27.842Z,8.93
2024-02-08T09:09:49.755Z,8.81
2024-02-08T09:14:55.342Z,8.77
2024-02-08T09:20:01.152Z,8.70
2024-02-08T09:25:23.031Z,8.63
2024-02-08T09:30:40.217Z,8.69
2024-02-08T09:35:44.686Z,8.62
2024-02-08T09:40:52.728Z,8.74
2024-02-08T09:46:29.592Z,8.47
2024-02-08T09:51:36.800Z,8.64
2024-02-08T09:56:40.996Z,8.65
2024-02-08T10:01:45.976Z,8.59
2024-02-08T10:06:56.864Z,8.57
2024-02-08T10:12:04.380Z,8.67
2024-02-08T10:17:26.877Z,8.65
2024-02-08T10:22:35.279Z,8.55
2024-02-08T10:27:38.217Z,8.31
2024-02-08T10:32:41.012Z,8.30
2024-02-08T10:38:09.306Z,8.16
2024-02-08T10:43:19.784Z,8.17
2024-02-08T10:48:24.916Z,8.15
2024-02-08T10:53:44.997Z,8.21
2024-02-08T10:59:07.739Z,8.11
2024-02-08T11:04:20.156Z,7.95
2024-02-08T11:09:29.038Z,8.00
2024-02-08T11:14:55.101Z,7.94
2024-02-08T11:19:59.006Z,7.87
2024-02-08T11:25:21.009Z,7.86
2024-02-08T11:30:35.201Z,8.02
2024-02-08T11:35:57.752Z,8.02
2024-02-08T11:41:10.914Z,7.92
2024-02-08T11:46:20.759Z,7.99
2024-02-08T11:51:24.224Z,7.93
2024-02-08T11:56:30.692Z,7.88
2024-02-08T12:01:35.423Z,7.67
2024-02-08T12:06:48.133Z,7.51
2024-02-08T12:11:56.996Z,7.87
2024-02-08T12:17:01.475Z,7.88
2024-02-08T12:22:16.714Z,7.78
2024-02-08T12:27:27.000Z,7.66
2024-02-08T12:32:32.324Z,7.93
2024-02-08T12:37:38.146Z,7.96
2024-02-08T12:42:42.650Z,7.99
2024-02-08T12:47:51.711Z,7.86
2024-02-08T12:52:57.162Z,8.03
2024-02-08T12:58:05.278Z,7.92
2024-02-08T13:03:10.424Z,7.83
2024-02-08T13:08:23.328Z,8.13
2024-02-08T13:13:26.162Z,7.72
2024-02-08T13:18:33.079Z,7.97
2024-02-08T13:23:39.747Z,8.03
2024-02-08T13:28:43.688Z,8.05
2024-02-08T13:33:46.750Z,8.09
2024-02-08T13:38:51.117Z,8.16
2024-02-08T13:43:56.611Z,8.32
2024-02-08T13:49:00.076Z,7.97
2024-02-08T13:54:03.415Z,8.05
2024-02-08T13:59:06.760Z,8.26
2024-02-08T14:04:09.642Z,8.17
2024-02-08T14:09:24.150Z,8.32
2024-02-08T14:14:42.026Z,8.12
2024-02-08T14:19:46.732Z,7.73
2024-02-08T14:24:52.949Z,8.15
2024-02-08T14:29:56.487Z,8.16
2024-02-08T14:35:00.678Z,8.27
2024-02-08T14:40:15.459Z,8.18
2024-02-08T14:45:18.730Z,8.25
2024-02-08T14:50:40.824Z,8.22
2024-02-08T14:55:48.732Z,8.16
2024-02-08T15:01:00.977Z,8.05
2024-02-08T15:06:07.138Z,8.17
2024-02-08T15:11:27.218Z,8.18
2024-02-08T15:16:33.317Z,8.11
2024-02-08T15:21:37.659Z,7.90
2024-02-08T15:27:05.709Z,7.97
2024-02-08T15:32:32.331Z,7.95
2024-02-08T15:37:45.865Z,7.89
2024-02-08T15:42:50.683Z,7.80
2024-02-08T15:47:59.994Z,7.74
2024-02-08T15:53:10.889Z,7.54
2024-02-08T15:58:27.778Z,7.69
2024-02-08T16:03:39.130Z,7.56
2024-02-08T16:08:48.245Z,7.60
2024-02-08T16:13:58.813Z,7.70
2024-02-08T16:19:24.906Z,7.68
2024-02-08T16:24:32.250Z,7.55
2024-02-08T16:29:36.467Z,7.07
2024-02-08T16:34:52.374Z,6.94
2024-02-08T16:40:09.381Z,6.91
2024-02-08T16:45:35.766Z,6.78
2024-02-08T16:51:17.965Z,6.67
2024-02-08T16:56:24.142Z,6.72
2024-02-08T17:01:31.815Z,6.40
2024-02-08T17:06:55.781Z,6.64
2024-02-08T17:12:06.782Z,6.49
2024-02-08T17:17:27.255Z,6.24
2024-02-08T17:22:42.265Z,6.21
2024-02-08T17:28:04.547Z,6.25
2024-02-08T17:33:13.294Z,6.13
2024-02-08T17:38:21.513Z,6.03
2024-02-08T17:43:25.524Z,6.07
2024-02-08T17:48:34.113Z,6.11
2024-02-08T17:53:46.339Z,6.03
2024-02-08T17:58:56.589Z,5.78
2024-02-08T18:04:03.788Z,5.93
2024-02-08T18:09:07.590Z,5.80
2024-02-08T18:14:17.050Z,5.78
2024-02-08T18:19:28.617Z,5.76
2024-02-08T18:24:34.075Z,5.62
2024-02-08T18:29:39.433Z,5.67
2024-02-08T18:34:42.274Z,5.63
2024-02-08T18:39:45.280Z,5.51
2024-02-08T18:44:52.333Z,5.55
2024-02-08T18:49:59.087Z,5.50
2024-02-08T18:55:11.118Z,5.36
2024-02-08T19:00:15.378Z,5.36
2024-02-08T19:05:25.550Z,5.55
2024-02-08T19:10:30.664Z,5.56
2024-02-08T19:15:39.085Z,5.31
2024-02-08T19:20:45.650Z,5.41
2024-02-08T19:25:56.406Z,5.27
2024-02-08T19:31:01.370Z,5.39
2024-02-08T19:36:12.116Z,5.27
2024-02-08T19:41:16.839Z,5.19
2024-02-08T19:46:20.776Z,5.18
2024-02-08T19:51:26.730Z,4.88
2024-02-08T19:56:35.185Z,4.71
2024-02-08T20:01:38.421Z,4.47
2024-02-08T20:06:48.984Z,4.53
2024-02-08T20:11:59.846Z,4.57
2024-02-08T20:17:06.022Z,4.11
2024-02-08T20:22:13.482Z,4.18
2024-02-08T20:27:19.731Z,3.87
2024-02-08T20:32:30.132Z,3.96
2024-02-08T20:37:33.919Z,3.70
2024-02-08T20:42:37.310Z,3.79
2024-02-08T20:47:43.251Z,3.77
2024-02-08T20:52:49.279Z,3.66
2024-02-08T20:57:54.283Z,3.67
2024-02-08T21:03:03.455Z,3.43
2024-02-08T21:08:09.199Z,3.61
2024-02-08T21:13:18.863Z,3.28
2024-02-08T21:18:23.368Z,3.32
2024-02-08T21:23:26.647Z,3.29
2024-02-08T21:28:31.257Z,3.14
2024-02-08T21:33:34.806Z,3.52
2024-02-08T21:38:37.764Z,3.52
2024-02-08T21:43:41.198Z,3.58
2024-02-08T21:48:44.989Z,3.54
2024-02-08T21:53:49.815Z,3.51
2024-02-08T21:58:52.679Z,3.34
2024-02-08T22:03:56.021Z,3.38
2024-02-08T22:08:59.552Z,3.31
2024-02-08T22:14:02.397Z,3.18
2024-02-08T22:19:05.355Z,3.31
2024-02-08T22:24:09.932Z,3.15
2024-02-08T22:29:14.875Z,3.11
2024-02-08T22:34:19.566Z,3.08
2024-02-08T22:39:24.577Z,3.23
2024-02-08T22:44:28.919Z,3.18
2024-02-08T22:49:31.890Z,3.37
2024-02-08T22:54:35.110Z,3.41
2024-02-08T22:59:38.103Z,2.91
2024-02-08T23:04:43.311Z,3.33
2024-02-08T23:09:46.286Z,3.12
2024-02-08T23:14:48.947Z,3.17
2024-02-08T23:19:54.271Z,3.35
2024-02-08T23:24:59.755Z,3.30
2024-02-08T23:30:03.124Z,3.40
2024-02-08T23:35:13.836Z,3.42
2024-02-08T23:40:17.095Z,3.39
2024-02-08T23:45:20.821Z,3.55
2024-02-08T23:50:28.137Z,3.50
2024-02-08T23:55:31.577Z,3.51
